createdAt,value
2023-03-06T00:00:50.527Z,98476.97
2023-03-06T00:03:21.961Z,98475.94
2023-03-06T00:05:51.444Z,98465.72
2023-03-06T00:08:22.577Z,98476.00
2023-03-06T00:10:52.085Z,98475.44
2023-03-06T00:13:23.416Z,98469.69
2023-03-06T00:15:52.527Z,98473.25
2023-03-06T00:18:22.571Z,98472.72
2023-03-06T00:20:52.035Z,98470.09
2023-03-06T00:23:21.334Z,98477.03
2023-03-06T00:25:51.147Z,98471.50
2023-03-06T00:28:21.319Z,98472.47
2023-03-06T00:30:51.052Z,98466.50
2023-03-06T00:33:32.744Z,98467.00
2023-03-06T00:36:08.896Z,98476.31
2023-03-06T00:38:38.576Z,98468.09
2023-03-06T00:41:10.144Z,98468.09
2023-03-06T00:43:40.511Z,98468.84
2023-03-06T00:46:10.611Z,98477.66
2023-03-06T00:48:41.729Z,98466.00
2023-03-06T00:51:13.922Z,98474.56
2023-03-06T00:53:44.965Z,98479.03
2023-03-06T00:56:17.061Z,98471.28
2023-03-06T00:58:47.430Z,98474.47
2023-03-06T01:01:17.430Z,98470.66
2023-03-06T01:03:46.844Z,98478.63
2023-03-06T01:06:16.441Z,98483.31
2023-03-06T01:08:45.952Z,98474.91
2023-03-06T01:11:15.531Z,98486.06
2023-03-06T01:13:46.408Z,98480.69
2023-03-06T01:16:19.507Z,98483.25
2023-03-06T01:18:52.245Z,98484.00
2023-03-06T01:21:21.849Z,98480.41
2023-03-06T01:23:51.516Z,98484.56
2023-03-06T01:26:20.868Z,98481.94
2023-03-06T01:28:50.383Z,98484.53
2023-03-06T01:31:20.475Z,98482.66
2023-03-06T01:33:49.722Z,98489.59
2023-03-06T01:36:20.330Z,98474.91
2023-03-06T01:38:49.840Z,98482.59
2023-03-06T01:41:22.645Z,98478.28
2023-03-06T01:43:52.395Z,98478.50
2023-03-06T01:46:43.182Z,98476.69
2023-03-06T01:49:17.968Z,98480.56
2023-03-06T01:51:55.691Z,98486.59
2023-03-06T01:54:31.218Z,98482.47
2023-03-06T01:57:07.148Z,98480.22
2023-03-06T01:59:39.401Z,98483.31
2023-03-06T02:02:12.000Z,98485.31
2023-03-06T02:04:43.293Z,98478.50
2023-03-06T02:07:14.552Z,98475.53
2023-03-06T02:09:44.797Z,98474.44
2023-03-06T02:12:19.590Z,98481.16
2023-03-06T02:14:50.246Z,98478.25
2023-03-06T02:17:22.196Z,98482.34
2023-03-06T02:20:21.063Z,98486.03
2023-03-06T02:23:06.491Z,98482.53
2023-03-06T02:25:42.001Z,98480.66
2023-03-06T02:28:15.347Z,98490.94
2023-03-06T02:30:46.729Z,98484.06
2023-03-06T02:33:19.360Z,98493.41
2023-03-06T02:35:57.224Z,98488.78
2023-03-06T02:38:33.042Z,98488.97
2023-03-06T02:41:04.986Z,98494.47
2023-03-06T02:43:38.557Z,98481.34
2023-03-06T02:46:08.919Z,98489.06
2023-03-06T02:48:39.108Z,98489.16
2023-03-06T02:51:08.929Z,98483.66
2023-03-06T02:53:38.701Z,98488.03
2023-03-06T02:56:08.629Z,98484.50
2023-03-06T02:58:39.839Z,98487.81
2023-03-06T03:01:09.308Z,98487.03
2023-03-06T03:03:40.221Z,98493.03
2023-03-06T03:06:10.020Z,98485.88
2023-03-06T03:08:40.060Z,98489.75
2023-03-06T03:11:10.572Z,98491.44
2023-03-06T03:13:40.737Z,98490.44
2023-03-06T03:16:16.057Z,98487.88
2023-03-06T03:18:50.573Z,98486.44
2023-03-06T03:22:12.456Z,98488.94
2023-03-06T03:24:47.604Z,98489.97
2023-03-06T03:27:18.127Z,98493.56
2023-03-06T03:29:48.161Z,98497.25
2023-03-06T03:32:40.952Z,98499.91
2023-03-06T03:35:14.878Z,98494.94
2023-03-06T03:37:44.315Z,98491.50
2023-03-06T03:40:15.073Z,98496.59
2023-03-06T03:42:44.622Z,98498.38
2023-03-06T03:45:14.819Z,98494.47
2023-03-06T03:47:44.335Z,98495.19
2023-03-06T03:50:15.407Z,98499.47
2023-03-06T03:52:46.206Z,98498.69
2023-03-06T03:55:16.081Z,98505.56
2023-03-06T03:57:46.336Z,98508.03
2023-03-06T04:00:17.390Z,98502.66
2023-03-06T04:02:49.507Z,98502.44
2023-03-06T04:05:19.454Z,98502.62
2023-03-06T04:07:50.116Z,98503.47
2023-03-06T04:10:20.475Z,98501.78
2023-03-06T04:12:51.788Z,98503.47
2023-03-06T04:15:21.697Z,98507.63
2023-03-06T04:17:51.367Z,98501.66
2023-03-06T04:20:21.809Z,98498.28
2023-03-06T04:22:53.119Z,98504.16
2023-03-06T04:25:23.170Z,98509.16
2023-03-06T04:27:53.405Z,98498.63
2023-03-06T04:30:23.141Z,98498.25
2023-03-06T04:32:53.893Z,98502.13
2023-03-06T04:35:23.555Z,98500.19
2023-03-06T04:37:54.176Z,98497.28
2023-03-06T04:40:34.459Z,98498.53
2023-03-06T04:43:06.314Z,98503.19
2023-03-06T04:45:36.354Z,98501.88
2023-03-06T04:48:06.416Z,98506.59
2023-03-06T04:50:36.363Z,98498.38
2023-03-06T04:53:06.535Z,98507.34
2023-03-06T04:55:35.992Z,98509.47
2023-03-06T04:58:05.549Z,98509.03
2023-03-06T05:00:35.536Z,98507.69
2023-03-06T05:03:05.239Z,98509.69
2023-03-06T05:05:35.100Z,98512.56
2023-03-06T05:08:04.599Z,98517.53
2023-03-06T05:10:34.142Z,98507.03
2023-03-06T05:13:04.217Z,98521.31
2023-03-06T05:15:33.570Z,98509.97
2023-03-06T05:18:03.060Z,98509.91
2023-03-06T05:20:32.871Z,98511.34
2023-03-06T05:23:02.537Z,98508.53
2023-03-06T05:25:32.926Z,98512.56
2023-03-06T05:28:02.189Z,98510.03
2023-03-06T05:30:33.787Z,98508.41
2023-03-06T05:33:03.662Z,98513.44
2023-03-06T05:35:33.205Z,98510.72
2023-03-06T05:38:02.833Z,98510.72
2023-03-06T05:40:32.462Z,98509.22
2023-03-06T05:43:01.912Z,98511.84
2023-03-06T05:45:31.565Z,98511.25
2023-03-06T05:48:01.361Z,98520.84
2023-03-06T05:50:30.668Z,98522.06
2023-03-06T05:53:00.702Z,98520.03
2023-03-06T05:55:30.189Z,98515.53
2023-03-06T05:57:59.698Z,98511.31
2023-03-06T06:00:30.228Z,98522.16
2023-03-06T06:03:02.599Z,98516.53
2023-03-06T06:05:32.003Z,98524.00
2023-03-06T06:08:03.148Z,98517.19
2023-03-06T06:10:32.251Z,98524.22
2023-03-06T06:13:01.601Z,98524.63
2023-03-06T06:15:31.744Z,98527.03
2023-03-06T06:18:02.877Z,98529.72
2023-03-06T06:20:32.033Z,98532.78
2023-03-06T06:23:01.683Z,98528.56
2023-03-06T06:25:32.953Z,98529.94
2023-03-06T06:28:04.141Z,98524.72
2023-03-06T06:30:34.453Z,98527.63
2023-03-06T06:33:05.247Z,98525.38
2023-03-06T06:35:37.900Z,98523.34
2023-03-06T06:38:07.907Z,98527.16
2023-03-06T06:40:37.628Z,98534.06
2023-03-06T06:43:07.083Z,98537.84
2023-03-06T06:45:38.057Z,98532.88
2023-03-06T06:48:07.549Z,98530.53
2023-03-06T06:50:37.245Z,98538.37
2023-03-06T06:53:06.629Z,98541.03
2023-03-06T06:55:36.912Z,98537.53
2023-03-06T06:58:06.586Z,98539.09
2023-03-06T07:00:35.804Z,98543.06
2023-03-06T07:03:11.890Z,98541.91
2023-03-06T07:05:41.350Z,98541.28
2023-03-06T07:08:11.396Z,98546.19
2023-03-06T07:10:40.877Z,98545.66
2023-03-06T07:13:11.606Z,98543.47
2023-03-06T07:15:41.365Z,98548.13
2023-03-06T07:18:11.143Z,98548.75
2023-03-06T07:20:41.044Z,98550.50
2023-03-06T07:23:14.143Z,98551.41
2023-03-06T07:25:43.750Z,98544.22
2023-03-06T07:28:14.881Z,98543.66
2023-03-06T07:30:45.247Z,98548.91
2023-03-06T07:33:15.740Z,98553.19
2023-03-06T07:35:45.194Z,98547.16
2023-03-06T07:38:15.081Z,98546.84
2023-03-06T07:40:44.568Z,98552.09
2023-03-06T07:43:19.463Z,98552.63
2023-03-06T07:45:57.478Z,98546.25
2023-03-06T07:48:28.848Z,98547.38
2023-03-06T07:51:01.747Z,98552.03
2023-03-06T07:53:31.708Z,98558.69
2023-03-06T07:56:02.084Z,98558.94
2023-03-06T07:58:31.852Z,98560.47
2023-03-06T08:01:05.735Z,98561.28
2023-03-06T08:03:36.036Z,98559.59
2023-03-06T08:06:08.408Z,98559.41
2023-03-06T08:08:42.023Z,98567.00
2023-03-06T08:11:14.355Z,98563.97
2023-03-06T08:13:44.452Z,98568.56
2023-03-06T08:16:14.029Z,98567.47
2023-03-06T08:18:46.246Z,98567.19
2023-03-06T08:21:18.405Z,98566.88
2023-03-06T08:23:49.504Z,98570.03
2023-03-06T08:26:21.840Z,98565.03
2023-03-06T08:28:53.211Z,98565.91
2023-03-06T08:31:36.910Z,98568.72
2023-03-06T08:34:10.038Z,98572.97
2023-03-06T08:36:39.457Z,98571.28
2023-03-06T08:39:09.815Z,98573.41
2023-03-06T08:41:39.863Z,98574.88
2023-03-06T08:44:10.190Z,98574.63
2023-03-06T08:46:39.657Z,98571.38
2023-03-06T08:49:13.411Z,98581.25
2023-03-06T08:51:43.208Z,98582.56
2023-03-06T08:54:14.383Z,98581.16
2023-03-06T08:56:43.903Z,98585.97
2023-03-06T08:59:14.559Z,98583.66
2023-03-06T09:01:45.947Z,98582.63
2023-03-06T09:04:16.342Z,98583.91
2023-03-06T09:06:45.890Z,98580.44
2023-03-06T09:09:17.390Z,98583.69
2023-03-06T09:11:46.662Z,98584.97
2023-03-06T09:14:16.872Z,98588.59
2023-03-06T09:16:47.383Z,98587.44
2023-03-06T09:19:17.215Z,98587.19
2023-03-06T09:21:46.514Z,98590.09
2023-03-06T09:24:15.856Z,98581.78
2023-03-06T09:26:47.162Z,98593.03
2023-03-06T09:29:18.287Z,98584.69
2023-03-06T09:31:48.286Z,98588.84
2023-03-06T09:34:17.586Z,98590.59
2023-03-06T09:36:56.519Z,98596.06
2023-03-06T09:39:27.936Z,98594.03
2023-03-06T09:41:59.348Z,98594.72
2023-03-06T09:44:33.374Z,98595.94
2023-03-06T09:47:20.081Z,98605.31
2023-03-06T09:50:01.817Z,98600.03
2023-03-06T09:52:54.904Z,98595.66
2023-03-06T09:55:29.999Z,98603.34
2023-03-06T09:58:17.441Z,98601.63
2023-03-06T10:01:03.490Z,98600.72
2023-03-06T10:03:40.578Z,98597.22
2023-03-06T10:06:32.118Z,98608.34
2023-03-06T10:09:13.465Z,98604.72
2023-03-06T10:11:48.048Z,98599.59
2023-03-06T10:14:21.552Z,98604.72
2023-03-06T10:16:51.541Z,98612.09
2023-03-06T10:19:23.040Z,98610.50
2023-03-06T10:22:31.663Z,98608.84
2023-03-06T10:25:28.573Z,98598.87
2023-03-06T10:28:19.970Z,98605.13
2023-03-06T10:30:53.932Z,98606.13
2023-03-06T10:33:47.691Z,98607.56
2023-03-06T10:36:19.537Z,98606.72
2023-03-06T10:38:49.832Z,98615.28
2023-03-06T10:41:37.412Z,98615.22
2023-03-06T10:44:26.501Z,98617.09
2023-03-06T10:46:56.955Z,98620.94
2023-03-06T10:49:30.842Z,98618.25
2023-03-06T10:52:06.158Z,98618.88
2023-03-06T10:54:41.443Z,98608.84
2023-03-06T10:57:31.967Z,98619.56
2023-03-06T11:00:24.044Z,98615.16
2023-03-06T11:03:24.215Z,98618.69
2023-03-06T11:06:02.392Z,98622.63
2023-03-06T11:08:33.008Z,98621.37
2023-03-06T11:11:05.917Z,98626.41
2023-03-06T11:13:39.080Z,98618.72
2023-03-06T11:16:31.383Z,98620.09
2023-03-06T11:19:07.717Z,98620.13
2023-03-06T11:21:40.768Z,98631.16
2023-03-06T11:24:20.265Z,98630.97
2023-03-06T11:27:31.293Z,98628.06
2023-03-06T11:30:03.717Z,98629.94
2023-03-06T11:32:45.857Z,98627.34
2023-03-06T11:35:23.552Z,98641.63
2023-03-06T11:38:05.716Z,98632.13
2023-03-06T11:40:46.782Z,98634.13
2023-03-06T11:43:42.166Z,98633.56
2023-03-06T11:46:29.914Z,98637.84
2023-03-06T11:49:26.138Z,98636.84
2023-03-06T11:51:58.789Z,98636.69
2023-03-06T11:54:28.487Z,98643.84
2023-03-06T11:57:05.743Z,98635.94
2023-03-06T11:59:56.099Z,98640.78
2023-03-06T12:02:26.589Z,98642.22
2023-03-06T12:05:27.259Z,98640.00
2023-03-06T12:08:27.993Z,98649.88
2023-03-06T12:11:14.468Z,98633.22
2023-03-06T12:14:13.241Z,98649.38
2023-03-06T12:16:53.770Z,98643.19
2023-03-06T12:20:02.993Z,98648.88
2023-03-06T12:22:53.309Z,98646.44
2023-03-06T12:25:35.334Z,98649.94
2023-03-06T12:28:25.402Z,98652.94
2023-03-06T12:31:33.748Z,98652.06
2023-03-06T12:34:19.903Z,98647.19
2023-03-06T12:37:14.991Z,98664.72
2023-03-06T12:39:57.294Z,98663.44
2023-03-06T12:42:52.734Z,98649.44
2023-03-06T12:45:24.489Z,98666.44
2023-03-06T12:47:57.549Z,98662.44
2023-03-06T12:50:30.118Z,98666.19
2023-03-06T12:53:04.047Z,98668.38
2023-03-06T12:55:42.492Z,98670.56
2023-03-06T12:58:32.137Z,98664.88
2023-03-06T13:01:41.314Z,98653.84
2023-03-06T13:04:37.533Z,98666.28
2023-03-06T13:07:47.591Z,98657.63
2023-03-06T13:10:35.199Z,98664.28
2023-03-06T13:13:34.260Z,98665.88
2023-03-06T13:16:25.529Z,98673.88
2023-03-06T13:19:05.824Z,98672.97
2023-03-06T13:21:44.114Z,98679.78
2023-03-06T13:24:28.415Z,98682.72
2023-03-06T13:27:07.827Z,98676.91
2023-03-06T13:29:39.942Z,98675.41
2023-03-06T13:32:19.609Z,98672.47
2023-03-06T13:34:52.786Z,98680.72
2023-03-06T13:37:52.015Z,98687.53
2023-03-06T13:40:34.931Z,98685.72
2023-03-06T13:43:19.000Z,98681.50
2023-03-06T13:45:50.901Z,98677.06
2023-03-06T13:48:44.119Z,98691.38
2023-03-06T13:51:25.546Z,98680.75
2023-03-06T13:54:37.256Z,98691.13
2023-03-06T13:57:28.452Z,98688.38
2023-03-06T14:00:08.702Z,98689.41
2023-03-06T14:03:10.823Z,98707.53
2023-03-06T14:05:45.768Z,98705.56
2023-03-06T14:08:21.774Z,98711.28
2023-03-06T14:11:06.358Z,98704.06
2023-03-06T14:13:47.858Z,98712.34
2023-03-06T14:16:49.973Z,98701.38
2023-03-06T14:19:21.150Z,98710.63
2023-03-06T14:21:57.324Z,98711.50
2023-03-06T14:24:42.231Z,98705.91
2023-03-06T14:27:19.695Z,98708.31
2023-03-06T14:29:50.631Z,98712.97
2023-03-06T14:32:23.870Z,98711.72
2023-03-06T14:34:54.256Z,98708.59
2023-03-06T14:37:25.702Z,98713.47
2023-03-06T14:39:57.046Z,98724.34
2023-03-06T14:42:29.014Z,98723.31
2023-03-06T14:45:18.878Z,98728.41
2023-03-06T14:47:54.561Z,98725.38
2023-03-06T14:50:29.028Z,98731.50
2023-03-06T14:53:14.604Z,98731.16
2023-03-06T14:56:03.116Z,98728.84
2023-03-06T14:58:55.088Z,98735.06
2023-03-06T15:01:33.989Z,98741.47
2023-03-06T15:04:08.188Z,98749.06
2023-03-06T15:06:43.348Z,98748.28
2023-03-06T15:09:21.269Z,98752.34
2023-03-06T15:12:28.033Z,98755.31
2023-03-06T15:15:04.363Z,98758.09
2023-03-06T15:17:44.223Z,98767.63
2023-03-06T15:20:43.560Z,98769.28
2023-03-06T15:23:41.707Z,98765.84
2023-03-06T15:26:31.908Z,98770.06
2023-03-06T15:29:09.419Z,98786.72
2023-03-06T15:31:41.842Z,98804.25
2023-03-06T15:34:12.508Z,98818.06
2023-03-06T15:36:52.064Z,98813.56
2023-03-06T15:39:33.453Z,98815.53
2023-03-06T15:42:25.623Z,98813.34
2023-03-06T15:45:14.276Z,98826.34
2023-03-06T15:47:46.251Z,98824.56
2023-03-06T15:50:20.054Z,98820.13
2023-03-06T15:52:52.062Z,98821.69
2023-03-06T15:55:26.781Z,98808.09
2023-03-06T15:58:00.585Z,98808.66
2023-03-06T16:00:35.157Z,98812.97
2023-03-06T16:03:05.470Z,98822.88
2023-03-06T16:05:34.856Z,98822.03
2023-03-06T16:08:05.894Z,98838.56
2023-03-06T16:10:38.430Z,98850.16
2023-03-06T16:13:14.308Z,98854.16
2023-03-06T16:15:49.785Z,98855.56
2023-03-06T16:18:20.424Z,98859.16
2023-03-06T16:20:51.576Z,98867.66
2023-03-06T16:23:22.017Z,98858.25
2023-03-06T16:25:51.339Z,98843.09
2023-03-06T16:28:20.474Z,98851.69
2023-03-06T16:30:50.647Z,98849.34
2023-03-06T16:33:20.340Z,98861.81
2023-03-06T16:36:01.260Z,98856.50
2023-03-06T16:38:30.687Z,98860.72
2023-03-06T16:41:00.719Z,98869.16
2023-03-06T16:43:30.065Z,98873.63
2023-03-06T16:45:59.573Z,98870.06
2023-03-06T16:48:30.745Z,98867.72
2023-03-06T16:51:00.443Z,98873.66
2023-03-06T16:53:30.045Z,98855.81
2023-03-06T16:55:59.639Z,98870.97
2023-03-06T16:58:29.753Z,98876.81
2023-03-06T17:01:01.299Z,98881.25
2023-03-06T17:03:30.669Z,98880.78
2023-03-06T17:06:01.336Z,98888.72
2023-03-06T17:08:31.278Z,98884.38
2023-03-06T17:11:06.134Z,98880.41
2023-03-06T17:13:35.708Z,98891.66
2023-03-06T17:16:07.136Z,98890.94
2023-03-06T17:18:37.418Z,98889.72
2023-03-06T17:21:09.463Z,98888.59
2023-03-06T17:23:39.765Z,98892.88
2023-03-06T17:26:19.640Z,98895.16
2023-03-06T17:28:49.184Z,98898.28
2023-03-06T17:31:23.826Z,98901.69
2023-03-06T17:33:57.386Z,98906.88
2023-03-06T17:36:28.732Z,98909.13
2023-03-06T17:39:00.345Z,98915.00
2023-03-06T17:41:30.908Z,98908.50
2023-03-06T17:44:00.429Z,98917.75
2023-03-06T17:46:32.724Z,98916.00
2023-03-06T17:49:02.303Z,98917.22
2023-03-06T17:51:32.041Z,98920.25
2023-03-06T17:54:01.598Z,98910.47
2023-03-06T17:56:31.016Z,98924.22
2023-03-06T17:59:01.100Z,98925.94
2023-03-06T18:01:31.477Z,98923.66
2023-03-06T18:04:03.046Z,98934.00
2023-03-06T18:06:34.078Z,98933.00
2023-03-06T18:09:04.831Z,98929.81
2023-03-06T18:11:34.564Z,98937.47
2023-03-06T18:14:05.618Z,98933.63
2023-03-06T18:16:35.080Z,98943.06
2023-03-06T18:19:14.898Z,98936.03
2023-03-06T18:21:44.000Z,98943.97
2023-03-06T18:24:25.743Z,98939.16
2023-03-06T18:27:04.417Z,98942.44
2023-03-06T18:29:34.613Z,98946.91
2023-03-06T18:32:05.201Z,98949.84
2023-03-06T18:34:35.158Z,98952.72
2023-03-06T18:37:04.482Z,98944.25
2023-03-06T18:39:34.038Z,98959.72
2023-03-06T18:42:05.003Z,98949.59
2023-03-06T18:44:34.554Z,98957.75
2023-03-06T18:47:07.492Z,98954.72
2023-03-06T18:49:43.128Z,98956.53
2023-03-06T18:52:17.081Z,98965.78
2023-03-06T18:54:49.349Z,98964.69
2023-03-06T18:57:19.048Z,98970.41
2023-03-06T18:59:49.073Z,98974.25
2023-03-06T19:02:21.199Z,98968.19
2023-03-06T19:04:52.906Z,98973.47
2023-03-06T19:07:22.907Z,98973.38
2023-03-06T19:09:52.123Z,98979.78
2023-03-06T19:12:22.212Z,98981.94
2023-03-06T19:14:52.496Z,98987.28
2023-03-06T19:17:23.977Z,98988.06
2023-03-06T19:19:58.621Z,98980.84
2023-03-06T19:22:28.689Z,98981.97
2023-03-06T19:25:03.638Z,98985.59
2023-03-06T19:27:33.438Z,98986.06
2023-03-06T19:30:05.543Z,98975.66
2023-03-06T19:32:35.410Z,98982.41
2023-03-06T19:35:06.450Z,98993.97
2023-03-06T19:37:37.155Z,98992.94
2023-03-06T19:40:08.784Z,98988.56
2023-03-06T19:42:40.843Z,98992.41
2023-03-06T19:45:11.824Z,98994.37
2023-03-06T19:47:41.256Z,99001.87
2023-03-06T19:50:13.832Z,99003.06
2023-03-06T19:52:43.773Z,99001.94
2023-03-06T19:55:14.262Z,98994.16
2023-03-06T19:57:44.227Z,98998.25
2023-03-06T20:00:15.077Z,98991.75
2023-03-06T20:02:44.764Z,99002.47
2023-03-06T20:05:14.080Z,98994.59
2023-03-06T20:07:43.758Z,99001.31
2023-03-06T20:10:14.669Z,99003.72
2023-03-06T20:12:43.935Z,99009.16
2023-03-06T20:15:14.018Z,99012.22
2023-03-06T20:17:43.271Z,99010.31
2023-03-06T20:20:14.656Z,99006.81
2023-03-06T20:22:44.021Z,99013.66
2023-03-06T20:25:14.191Z,99005.97
2023-03-06T20:27:44.924Z,99016.34
2023-03-06T20:30:15.217Z,99014.81
2023-03-06T20:32:44.751Z,99015.84
2023-03-06T20:35:14.896Z,99011.72
2023-03-06T20:37:44.145Z,99016.81
2023-03-06T20:40:14.233Z,99018.78
2023-03-06T20:42:47.127Z,99019.97
2023-03-06T20:45:16.372Z,99015.69
2023-03-06T20:47:48.012Z,99022.66
2023-03-06T20:50:23.362Z,99027.09
2023-03-06T20:52:56.470Z,99018.59
2023-03-06T20:55:26.156Z,99025.59
2023-03-06T20:57:55.986Z,99026.44
2023-03-06T21:00:26.363Z,99028.22
2023-03-06T21:02:59.631Z,99025.28
2023-03-06T21:05:29.148Z,99032.75
2023-03-06T21:07:59.010Z,99030.03
2023-03-06T21:10:28.235Z,99030.12
2023-03-06T21:12:57.759Z,99033.25
2023-03-06T21:15:30.741Z,99028.88
2023-03-06T21:17:59.953Z,99030.69
2023-03-06T21:20:30.726Z,99030.81
2023-03-06T21:23:02.536Z,99035.19
2023-03-06T21:25:33.581Z,99039.56
2023-03-06T21:28:06.557Z,99038.38
2023-03-06T21:30:36.486Z,99039.31
2023-03-06T21:33:05.731Z,99036.59
2023-03-06T21:35:40.637Z,99028.09
2023-03-06T21:38:10.159Z,99045.09
2023-03-06T21:40:40.421Z,99044.59
2023-03-06T21:43:09.865Z,99044.72
2023-03-06T21:45:43.852Z,99035.06
2023-03-06T21:48:13.567Z,99041.97
2023-03-06T21:50:44.045Z,99051.88
2023-03-06T21:53:13.403Z,99037.12
2023-03-06T21:55:49.266Z,99049.22
2023-03-06T21:58:18.966Z,99043.31
2023-03-06T22:00:48.226Z,99047.28
2023-03-06T22:03:17.888Z,99044.38
2023-03-06T22:05:47.459Z,99047.09
2023-03-06T22:08:16.561Z,99053.81
2023-03-06T22:10:48.526Z,99049.94
2023-03-06T22:13:17.812Z,99053.78
2023-03-06T22:15:52.661Z,99060.44
2023-03-06T22:18:22.657Z,99061.47
2023-03-06T22:20:52.812Z,99065.69
2023-03-06T22:23:22.088Z,99065.28
2023-03-06T22:25:51.518Z,99064.19
2023-03-06T22:28:21.963Z,99066.03
2023-03-06T22:30:51.225Z,99067.06
2023-03-06T22:33:20.854Z,99059.94
2023-03-06T22:35:50.328Z,99063.81
2023-03-06T22:38:19.746Z,99061.06
2023-03-06T22:40:49.622Z,99059.12
2023-03-06T22:43:20.832Z,99064.88
2023-03-06T22:45:53.376Z,99062.72
2023-03-06T22:48:23.678Z,99065.84
2023-03-06T22:50:54.470Z,99068.84
2023-03-06T22:53:23.814Z,99061.78
2023-03-06T22:55:54.081Z,99055.47
2023-03-06T22:58:23.457Z,99053.47
2023-03-06T23:00:53.052Z,99060.31
2023-03-06T23:03:23.106Z,99052.31
2023-03-06T23:05:52.587Z,99057.38
2023-03-06T23:08:22.364Z,99052.12
2023-03-06T23:11:11.601Z,99053.91
2023-03-06T23:13:56.260Z,99059.12
2023-03-06T23:16:41.205Z,99058.56
2023-03-06T23:19:25.459Z,99056.59
2023-03-06T23:22:09.809Z,99065.94
2023-03-06T23:24:53.821Z,99052.78
2023-03-06T23:27:24.138Z,99060.31
2023-03-06T23:29:58.091Z,99058.97
2023-03-06T23:32:27.825Z,99052.44
2023-03-06T23:34:57.038Z,99050.59
2023-03-06T23:37:26.552Z,99055.69
2023-03-06T23:39:56.900Z,99046.81
2023-03-06T23:42:26.434Z,99049.56
2023-03-06T23:44:56.416Z,99048.56
2023-03-06T23:47:25.789Z,99054.75
2023-03-06T23:49:55.917Z,99046.75
2023-03-06T23:52:25.632Z,99047.87
2023-03-06T23:54:55.344Z,99046.50
2023-03-06T23:57:26.764Z,99048.19
2023-03-06T23:59:56.197Z,99046.75
